»·PEaware :: N212MH KGEG-KHQM

N212MH :: KGEG-KHQM

FLIGHT INFORMATION

Flight Status: Arrived
Operator: Privately registered:
United States
More flights under this callsign
Pilot: Erik A. (17503)
Aircraft: AERMACCHI WARRIOR
(F260)
More flights by this aircraft type
Origin: KGEG Spokane Intl
United States
Destination: KHQM Bowerman
United States
More flights between these airports :: More routes between these airports
Route: +
File this flight plan on PilotEdge
Remarks:
Altitude:
(Current/Filed)
0ft
Speed:
(Current/Filed)
0kts
Departed: 11-Aug-20 11:18 AM
Arrived: 11-Aug-20 02:54 PM
Distance/Time
Traveled:
263nm/3:36
Distance/Time
To Go:
Arrived

Flight Plot

Page will automatically refresh every two minutes.

Flight plan parsing failed; only flown route is shown


Map Options




Map Legend


Flown Route
Filed Route
Departure Airport
Arrival Airport
Navaid (VOR, NDB)
Fix

Horizontal Profiles

Position Reports

Time Latitude Longitude Heading Altitude Ground
Speed
11-Aug-20 11:16 47.456168 -117.627334 252 4547ft 167kts
11-Aug-20 11:17 47.438914 -117.686725 213 4579ft 169kts
11-Aug-20 11:18 47.399972 -117.723375 215 4611ft 166kts
11-Aug-20 11:19 47.366420 -117.769929 223 4423ft 167kts
11-Aug-20 11:20 47.333436 -117.814900 232 4245ft 159kts
11-Aug-20 11:21 47.306471 -117.865327 232 4183ft 155kts
11-Aug-20 11:22 47.282519 -117.917261 237 4187ft 155kts
11-Aug-20 11:23 47.257152 -117.963999 223 4404ft 147kts
11-Aug-20 11:24 47.228389 -118.007403 230 4451ft 148kts
11-Aug-20 11:25 47.198131 -118.045473 210 4626ft 144kts
11-Aug-20 11:26 47.162107 -118.074137 206 4633ft 149kts
11-Aug-20 11:27 47.127718 -118.107580 219 4673ft 149kts
11-Aug-20 11:28 47.097008 -118.147251 208 4749ft 148kts
11-Aug-20 11:29 47.058885 -118.169932 203 4785ft 147kts
11-Aug-20 11:30 47.030129 -118.210785 239 4828ft 146kts
11-Aug-20 11:31 47.004869 -118.258705 226 4743ft 150kts
11-Aug-20 11:32 46.983187 -118.309065 253 4819ft 149kts
11-Aug-20 11:34 46.969834 -118.365635 242 4860ft 146kts
11-Aug-20 11:35 46.952935 -118.419573 269 4813ft 149kts
11-Aug-20 11:36 46.967416 -118.473367 303 3473ft 146kts
11-Aug-20 11:37 46.987922 -118.515638 297 2557ft 100kts
11-Aug-20 11:38 46.988992 -118.551390 242 2105ft 93kts
11-Aug-20 11:39 46.977930 -118.583996 241 1509ft 67kts
11-Aug-20 11:40 46.968378 -118.619843 277 2352ft 109kts
11-Aug-20 11:41 46.990635 -118.613904 103 3557ft 117kts
11-Aug-20 11:42 46.964855 -118.581923 159 4233ft 123kts
11-Aug-20 11:43 46.930988 -118.571076 191 4553ft 133kts
11-Aug-20 11:44 46.893650 -118.570744 177 4759ft 140kts
11-Aug-20 11:45 46.852133 -118.560846 172 4433ft 156kts
11-Aug-20 11:46 46.809683 -118.553494 178 4310ft 153kts
11-Aug-20 11:47 46.767841 -118.544512 178 4178ft 148kts
11-Aug-20 11:48 46.762988 -118.531604 290 4469ft 131kts
11-Aug-20 11:49 46.735323 -118.550538 185 4604ft 141kts
11-Aug-20 11:50 46.707276 -118.542154 169 3994ft 99kts
11-Aug-20 11:51 46.681710 -118.525878 164 2817ft 107kts
11-Aug-20 11:51 46.659147 -118.526580 214 1891ft 86kts
11-Aug-20 11:53 46.648239 -118.563322 267 1150ft 85kts
11-Aug-20 11:54 46.649278 -118.598252 262 1375ft 93kts
11-Aug-20 11:54 46.641112 -118.631332 241 1280ft 110kts
11-Aug-20 11:55 46.636425 -118.675009 289 1123ft 114kts
11-Aug-20 11:56 46.640311 -118.717307 273 1101ft 104kts
11-Aug-20 11:57 46.643953 -118.758731 280 1041ft 105kts
11-Aug-20 11:58 46.655144 -118.792427 315 1692ft 109kts
11-Aug-20 11:59 46.681177 -118.819057 301 1858ft 124kts
11-Aug-20 12:00 46.680206 -118.852213 135 1755ft 106kts
11-Aug-20 12:01 46.657509 -118.828304 134 1353ft 83kts
11-Aug-20 12:02 46.661203 -118.835408 270 960ft 88kts
11-Aug-20 12:03 46.645323 -118.863092 215 1565ft 127kts
11-Aug-20 12:04 46.619880 -118.902025 226 2018ft 139kts
11-Aug-20 12:05 46.589089 -118.935818 220 2421ft 141kts
11-Aug-20 12:06 46.580624 -118.991625 270 2463ft 154kts
11-Aug-20 12:07 46.578903 -119.051505 265 2343ft 148kts
11-Aug-20 12:08 46.575591 -119.110058 264 2360ft 140kts
11-Aug-20 12:09 46.572907 -119.167115 263 2269ft 142kts
11-Aug-20 12:10 46.571547 -119.225019 262 2077ft 149kts
11-Aug-20 12:11 46.563973 -119.283185 263 2010ft 145kts
11-Aug-20 12:12 46.564526 -119.339807 270 2093ft 138kts
11-Aug-20 12:13 46.568739 -119.395703 269 2178ft 139kts
11-Aug-20 12:14 46.564758 -119.451602 259 2266ft 139kts
11-Aug-20 12:15 46.557968 -119.506920 261 2383ft 137kts
11-Aug-20 12:16 46.554218 -119.562652 261 2453ft 139kts
11-Aug-20 12:17 46.546867 -119.617598 241 2552ft 137kts
11-Aug-20 12:18 46.525444 -119.658714 230 3417ft 125kts
11-Aug-20 12:19 46.506431 -119.700619 236 4208ft 126kts
11-Aug-20 12:20 46.485257 -119.745146 234 4435ft 146kts
11-Aug-20 12:21 46.459809 -119.792738 234 4392ft 149kts
11-Aug-20 12:22 46.447674 -119.849858 272 4382ft 154kts
11-Aug-20 12:23 46.451545 -119.911297 273 4485ft 148kts
11-Aug-20 12:24 46.460076 -119.969504 286 4518ft 149kts
11-Aug-20 12:25 46.471466 -120.028347 282 4497ft 155kts
11-Aug-20 12:26 46.481439 -120.091248 282 4513ft 160kts
11-Aug-20 12:27 46.495553 -120.153043 286 4569ft 166kts
11-Aug-20 12:28 46.508031 -120.217280 282 4400ft 173kts
11-Aug-20 12:29 46.518868 -120.286351 283 3926ft 182kts
11-Aug-20 12:30 46.533349 -120.350896 286 3249ft 145kts
11-Aug-20 12:31 46.539690 -120.399595 272 2671ft 112kts
11-Aug-20 12:32 46.545594 -120.447536 296 2389ft 132kts
11-Aug-20 12:33 46.554560 -120.489395 290 1704ft 101kts
11-Aug-20 12:34 46.564056 -120.523944 293 1150ft 80kts
11-Aug-20 12:35 46.572814 -120.558387 294 1276ft 108kts
11-Aug-20 12:36 46.590017 -120.596611 300 2151ft 120kts
11-Aug-20 12:37 46.609281 -120.637359 308 3017ft 125kts
11-Aug-20 12:38 46.632214 -120.675051 303 3920ft 120kts
11-Aug-20 12:39 46.654039 -120.714624 309 4355ft 147kts
11-Aug-20 12:40 46.687439 -120.754666 327 4382ft 157kts
11-Aug-20 12:41 46.712641 -120.804707 273 4331ft 160kts
11-Aug-20 12:42 46.700997 -120.866024 245 4456ft 158kts
11-Aug-20 12:43 46.683591 -120.925381 249 4513ft 159kts
11-Aug-20 12:44 46.676929 -120.988929 271 4498ft 160kts
11-Aug-20 12:45 46.676435 -121.053438 269 4480ft 159kts
11-Aug-20 12:46 46.668140 -121.114743 241 4136ft 149kts
11-Aug-20 12:47 46.644491 -121.144667 214 3667ft 93kts
11-Aug-20 12:48 46.633913 -121.128870 37 3064ft 92kts
11-Aug-20 12:49 46.650378 -121.094429 34 3443ft 140kts
11-Aug-20 12:50 46.656777 -121.129839 225 4142ft 149kts
11-Aug-20 12:51 46.641076 -121.183498 270 4609ft 150kts
11-Aug-20 12:52 46.642924 -121.244807 273 5111ft 151kts
11-Aug-20 12:53 46.647734 -121.303732 281 5700ft 147kts
11-Aug-20 12:54 46.651178 -121.360586 255 6356ft 138kts
11-Aug-20 12:55 46.635373 -121.411927 248 7074ft 133kts
11-Aug-20 12:56 46.625948 -121.463828 258 7914ft 132kts
11-Aug-20 12:57 46.620485 -121.517912 269 8467ft 143kts
11-Aug-20 12:58 46.625729 -121.576191 286 8858ft 144kts
11-Aug-20 12:59 46.630204 -121.635666 259 9093ft 146kts
11-Aug-20 13:00 46.634032 -121.692296 300 9373ft 145kts
11-Aug-20 13:01 46.661613 -121.736322 304 9436ft 152kts
11-Aug-20 13:02 46.684344 -121.789266 300 9263ft 159kts
11-Aug-20 13:03 46.700253 -121.846304 292 9288ft 151kts
11-Aug-20 13:04 46.732640 -121.846582 70 9171ft 173kts
11-Aug-20 13:05 46.745003 -121.779441 69 9260ft 167kts
11-Aug-20 13:06 46.755707 -121.714760 77 9482ft 160kts
11-Aug-20 13:07 46.766700 -121.651595 75 9630ft 161kts
11-Aug-20 13:08 46.783316 -121.591643 52 9687ft 160kts
11-Aug-20 13:09 46.819997 -121.562320 1 9768ft 152kts
11-Aug-20 13:10 46.863580 -121.556283 355 9535ft 155kts
11-Aug-20 13:11 46.905325 -121.544359 13 7866ft 165kts
11-Aug-20 13:12 46.946570 -121.531879 358 6710ft 119kts
11-Aug-20 13:13 46.978151 -121.526505 5 4950ft 115kts
11-Aug-20 13:14 47.008436 -121.531861 331 2720ft 92kts
11-Aug-20 13:15 47.018042 -121.535326 225 2567ft 0kts
11-Aug-20 13:16 47.018042 -121.535326 225 2567ft 0kts
11-Aug-20 13:17 47.018042 -121.535326 225 2567ft 0kts
11-Aug-20 13:18 47.018042 -121.535326 225 2567ft 0kts
11-Aug-20 13:19 47.018042 -121.535326 225 2567ft 0kts
11-Aug-20 13:20 47.018042 -121.535326 225 2567ft 0kts
11-Aug-20 13:21 47.018042 -121.535326 225 2567ft 0kts
11-Aug-20 13:22 47.018042 -121.535326 225 2567ft 0kts
11-Aug-20 13:23 47.018042 -121.535326 225 2567ft 0kts
11-Aug-20 13:24 47.018042 -121.535326 225 2567ft 0kts
11-Aug-20 13:25 47.018042 -121.535326 225 2567ft 0kts
11-Aug-20 13:26 47.018042 -121.535326 225 2567ft 0kts
11-Aug-20 13:27 47.018042 -121.535326 225 2567ft 0kts
11-Aug-20 13:29 47.018042 -121.535326 225 2567ft 0kts
11-Aug-20 13:30 47.018042 -121.535326 225 2567ft 0kts
11-Aug-20 13:31 47.018042 -121.535326 225 2567ft 0kts
11-Aug-20 13:32 47.018042 -121.535326 225 2567ft 0kts
11-Aug-20 13:33 47.018042 -121.535326 225 2567ft 0kts
11-Aug-20 13:34 47.018042 -121.535326 225 2567ft 0kts
11-Aug-20 13:35 47.018042 -121.535326 225 2567ft 0kts
11-Aug-20 13:36 47.018042 -121.535326 225 2567ft 0kts
11-Aug-20 13:37 47.018042 -121.535326 225 2567ft 0kts
11-Aug-20 13:38 47.018042 -121.535326 225 2567ft 0kts
11-Aug-20 13:39 47.018042 -121.535326 225 2567ft 0kts
11-Aug-20 13:40 47.018042 -121.535326 225 2567ft 0kts
11-Aug-20 13:41 47.018042 -121.535326 225 2567ft 0kts
11-Aug-20 13:42 47.018042 -121.535326 225 2567ft 0kts
11-Aug-20 13:43 47.016393 -121.535045 166 2572ft 22kts
11-Aug-20 13:44 47.010214 -121.532618 173 2586ft 18kts
11-Aug-20 13:45 47.009538 -121.532308 340 2586ft 0kts
11-Aug-20 13:46 47.025797 -121.541997 312 3146ft 114kts
11-Aug-20 13:46 47.048059 -121.568922 343 4137ft 138kts
11-Aug-20 13:47 47.076516 -121.585337 221 5250ft 126kts
11-Aug-20 13:49 47.039161 -121.563727 131 6441ft 143kts
11-Aug-20 13:49 47.016924 -121.528679 155 7277ft 138kts
11-Aug-20 13:50 46.979509 -121.515732 176 8092ft 144kts
11-Aug-20 13:52 46.932237 -121.514693 187 8631ft 146kts
11-Aug-20 13:52 46.902113 -121.532660 238 8914ft 141kts
11-Aug-20 13:53 46.896500 -121.585912 273 9394ft 132kts
11-Aug-20 13:54 46.916701 -121.632037 306 9536ft 145kts
11-Aug-20 13:55 46.938532 -121.681667 265 9430ft 153kts
11-Aug-20 13:56 46.931625 -121.739940 279 9338ft 151kts
11-Aug-20 13:57 46.959521 -121.780900 350 9233ft 161kts
11-Aug-20 13:58 47.000839 -121.772286 322 9058ft 152kts
11-Aug-20 13:59 47.033752 -121.814524 293 8599ft 158kts
11-Aug-20 14:00 47.012606 -121.864483 226 8200ft 138kts
11-Aug-20 14:01 46.996671 -121.900295 257 6988ft 101kts
11-Aug-20 14:02 47.000028 -121.943471 289 5660ft 135kts
11-Aug-20 14:03 47.016482 -121.995648 291 5402ft 138kts
11-Aug-20 14:04 47.036832 -122.043361 293 5292ft 137kts
11-Aug-20 14:05 47.036634 -122.100294 267 4871ft 146kts
11-Aug-20 14:06 47.035882 -122.159438 264 4425ft 139kts
11-Aug-20 14:07 47.015438 -122.208229 224 3799ft 147kts
11-Aug-20 14:08 46.980292 -122.235767 205 3409ft 142kts
11-Aug-20 14:09 46.946763 -122.256695 177 3307ft 113kts
11-Aug-20 14:10 46.918541 -122.252171 182 2469ft 94kts
11-Aug-20 14:11 46.891169 -122.254631 190 1675ft 99kts
11-Aug-20 14:12 46.866522 -122.257985 187 940ft 99kts
11-Aug-20 14:13 46.858198 -122.293622 251 2036ft 125kts
11-Aug-20 14:14 46.853594 -122.343900 270 2616ft 116kts
11-Aug-20 14:15 46.848995 -122.389018 271 3573ft 138kts
11-Aug-20 14:16 46.836309 -122.450112 255 3425ft 169kts
11-Aug-20 14:17 46.827726 -122.513191 256 3682ft 153kts
11-Aug-20 14:18 46.813070 -122.575094 256 3516ft 165kts
11-Aug-20 14:19 46.802002 -122.638216 251 3579ft 162kts
11-Aug-20 14:20 46.792605 -122.701936 272 3504ft 159kts
11-Aug-20 14:21 46.814475 -122.752220 334 3371ft 146kts
11-Aug-20 14:22 46.850154 -122.771903 325 3368ft 134kts
11-Aug-20 14:23 46.881505 -122.803632 319 3191ft 144kts
11-Aug-20 14:24 46.913817 -122.840002 318 2294ft 152kts
11-Aug-20 14:25 46.946817 -122.875373 334 1674ft 144kts
11-Aug-20 14:26 46.983314 -122.880205 337 1182ft 97kts
11-Aug-20 14:27 46.980361 -122.901052 190 356ft 75kts
11-Aug-20 14:28 46.956887 -122.908540 195 613ft 109kts
11-Aug-20 14:29 46.955580 -122.886138 13 1699ft 140kts
11-Aug-20 14:30 46.992079 -122.878142 3 2540ft 127kts
11-Aug-20 14:31 47.028596 -122.876620 351 2888ft 143kts
11-Aug-20 14:32 47.044152 -122.921914 284 2745ft 140kts
11-Aug-20 14:33 47.044589 -122.981067 254 2532ft 147kts
11-Aug-20 14:34 47.044535 -123.039413 268 2499ft 141kts
11-Aug-20 14:35 47.048122 -123.097786 273 2406ft 145kts
11-Aug-20 14:36 47.054057 -123.154921 273 2401ft 144kts
11-Aug-20 14:37 47.053069 -123.212480 265 2340ft 140kts
11-Aug-20 14:38 47.056573 -123.269959 271 2194ft 144kts
11-Aug-20 14:39 47.041950 -123.321774 238 2189ft 131kts
11-Aug-20 14:40 47.016419 -123.355141 233 1166ft 102kts
11-Aug-20 14:41 47.004831 -123.385538 234 752ft 68kts
11-Aug-20 14:42 46.990808 -123.407509 269 408ft 69kts
11-Aug-20 14:43 46.991784 -123.438049 273 321ft 86kts
11-Aug-20 14:44 46.995087 -123.483241 268 926ft 130kts
11-Aug-20 14:45 46.989539 -123.538694 256 1150ft 145kts
11-Aug-20 14:46 46.981144 -123.596221 260 1356ft 145kts
11-Aug-20 14:47 46.976566 -123.656041 265 1454ft 146kts
11-Aug-20 14:48 46.975686 -123.717180 268 1430ft 148kts
11-Aug-20 14:49 46.978249 -123.776548 275 1387ft 146kts
11-Aug-20 14:50 46.981459 -123.834561 270 1161ft 135kts
11-Aug-20 14:51 46.977418 -123.883089 262 938ft 92kts
11-Aug-20 14:52 46.973577 -123.917212 260 203ft 81kts
11-Aug-20 14:53 46.971120 -123.939798 333 18ft 23kts
11-Aug-20 14:54 46.972738 -123.932736 81 17ft 25kts
11-Aug-20 14:55 46.973509 -123.929560 175 17ft 0kts
11-Aug-20 14:56 46.973509 -123.929560 175 17ft 0kts
11-Aug-20 14:57 46.973509 -123.929560 175 17ft 0kts
11-Aug-20 14:58 46.973509 -123.929560 175 17ft 0kts
11-Aug-20 14:59 46.973509 -123.929560 175 17ft 0kts

Navigation Log

Ident Type
Flight plan parsing failed, navigation log unavailable